F/V J. Louis Vincent — FQBL — position and weather

sailwx.info

Track history (hours):
 
Tides and Currents Weather Stations Pressure Air Temp Water Temp Dewpoint Dewpoint Depression Visibility Wind Speed Wind Dir Waves Ship Positions

F/V J. Louis Vincent

Last reported at 2014-Dec-19 14:33 UTC. Time now 2014-Dec-20 18:42 UTC.
Position N 43°06' E 003°51'.

Length 29 m.

Type: Fishing. MMSI: 227146600.

Date/timePositionNaut miles runAvg speedWind from/ knotsBaromVisibWave heightAir tempDewpointWater temp
2014-Dec-19 14:33N 43°06' E 003°51'9 4.2
2014-Dec-19 12:24N 42°58' E 003°56'3 4.0
2014-Dec-19 11:33N 42°55' E 003°59'9 3.8
2014-Dec-19 09:05N 42°53' E 004°12'38 2.4
2014-Dec-18 17:13N 43°24' E 003°42'0 0.6
2014-Dec-18 16:32N 43°24' E 003°42'17 8.0
2014-Dec-18 14:24N 43°08' E 003°50'9 4.5
2014-Dec-18 12:26N 42°60' E 003°55'2 2.3
2014-Dec-18 11:25N 42°58' E 003°57'9 4.1
2014-Dec-18 09:19N 42°59' E 004°09'4 4.3
2014-Dec-18 08:30N 42°59' E 004°14'3 2.6
2014-Dec-18 07:14N 42°59' E 004°09'3 4.5
2014-Dec-18 06:33N 42°59' E 004°05'5 4.4
2014-Dec-18 05:30N 42°60' E 003°59'4 4.2
2014-Dec-18 04:33N 43°02' E 003°54'6 5.6
2014-Dec-18 03:32N 43°07' E 003°50'18 1.8
2014-Dec-17 17:23N 43°24' E 003°42'0 0.3
2014-Dec-17 16:24N 43°24' E 003°42'1311.4
2014-Dec-17 15:16N 43°11' E 003°46'3 4.2
2014-Dec-17 14:29N 43°08' E 003°46'5 4.6
2014-Dec-17 13:24N 43°03' E 003°46'4 4.4
2014-Dec-17 12:27N 42°59' E 003°48'1 1.0
2014-Dec-17 11:20N 42°59' E 003°50'6 4.5
2014-Dec-17 10:06N 42°59' E 003°57'3 4.5
2014-Dec-17 09:32N 42°59' E 004°01'3 3.2
2014-Dec-17 08:32N 42°58' E 004°05'6 5.1
2014-Dec-17 07:19N 42°60' E 003°56'27 1.9
2014-Dec-16 17:30N 43°24' E 003°42'1 0.9
2014-Dec-16 16:30N 43°23' E 003°42'1010.6
2014-Dec-16 15:34N 43°13' E 003°45'6 5.5
2014-Dec-16 14:33N 43°08' E 003°46'4 4.4
2014-Dec-16 13:33N 43°04' E 003°46'4 4.4
2014-Dec-16 12:33N 42°59' E 003°47'4 2.2
2014-Dec-16 10:32N 42°60' E 003°53'5 4.4
2014-Dec-16 09:21N 42°60' E 004°00'3 1.2
2014-Dec-16 07:14N 42°59' E 003°57'27 1.9
2014-Dec-15 17:09N 43°24' E 003°42'0 0.5
2014-Dec-15 16:16N 43°24' E 003°42'6 7.5
2014-Dec-15 15:27N 43°18' E 003°45'8 7.8
2014-Dec-15 14:22N 43°10' E 003°48'8 4.4
2014-Dec-15 12:33N 43°02' E 003°50'3 2.9
2014-Dec-15 11:33N 42°59' E 003°50'6 4.3
2014-Dec-15 10:12N 42°57' E 003°43'4 4.4
2014-Dec-15 09:18N 42°54' E 003°39'4 4.4
2014-Dec-15 08:19N 42°50' E 003°36'  
2014-Dec-12 16:20N 43°24' E 003°44'912.0
2014-Dec-12 15:33N 43°14' E 003°47'11 5.0
2014-Dec-12 13:25N 43°04' E 003°50'4 2.7
2014-Dec-12 12:05N 43°00' E 003°50'3 3.4
2014-Dec-12 11:09N 42°59' E 003°47'9 4.4
2014-Dec-12 09:13N 42°54' E 003°37'5 1.8
2014-Dec-12 06:15N 42°58' E 003°40'25 1.8
2014-Dec-11 16:29N 43°24' E 003°42'6 5.3
2014-Dec-11 15:25N 43°20' E 003°47'9 4.3
2014-Dec-11 13:24N 43°15' E 003°57'7 3.6
2014-Dec-11 11:19N 43°09' E 004°04'3 4.2
2014-Dec-11 10:33N 43°07' E 004°07'4 4.3
2014-Dec-11 09:33N 43°03' E 004°09'4 4.5
2014-Dec-11 08:33N 42°59' E 004°11'2 1.5
2014-Dec-11 07:30N 42°59' E 004°09'4 4.2
2014-Dec-11 06:33N 43°01' E 004°05'5 4.4
2014-Dec-11 05:31N 43°05' E 004°01'4 4.2
2014-Dec-11 04:33N 43°08' E 003°58'4 4.4
2014-Dec-11 03:33N 43°12' E 003°54'15 1.6
2014-Dec-10 18:12N 43°24' E 003°42'0 0.7
2014-Dec-10 17:29N 43°24' E 003°42'0 0.3
2014-Dec-10 16:33N 43°24' E 003°42'4 3.6
2014-Dec-10 15:33N 43°22' E 003°46'5 4.5
2014-Dec-10 14:29N 43°20' E 003°52'4 4.3
2014-Dec-10 13:32N 43°17' E 003°56'5 4.5
2014-Dec-10 12:26N 43°14' E 004°01'1 0.8
2014-Dec-10 11:27N 43°13' E 004°01'4 3.9
2014-Dec-10 10:33N 43°12' E 004°06'4 4.3
2014-Dec-10 09:30N 43°10' E 004°12'5 4.4
2014-Dec-10 08:23N 43°06' E 004°16'11 3.2
2014-Dec-10 05:05N 43°11' E 004°03'20 1.6
2014-Dec-09 16:33N 43°24' E 003°42'0 0.4
2014-Dec-09 15:29N 43°24' E 003°42'  
Track history (hours):
 
Tides and Currents Weather Stations Pressure Air Temp Water Temp Dewpoint Dewpoint Depression Visibility Wind Speed Wind Dir Waves Ship Positions

F/V J. Louis Vincent

Last reported at 2014-Dec-19 14:33 UTC. Time now 2014-Dec-20 18:42 UTC.
Position N 43°06' E 003°51'.

Length 29 m.

Type: Fishing. MMSI: 227146600.

Date/timePositionNaut miles runAvg speedWind from/ knotsBaromVisibWave heightAir tempDewpointWater temp
2014-Dec-19 14:33N 43°06' E 003°51'9 4.2
2014-Dec-19 12:24N 42°58' E 003°56'3 4.0
2014-Dec-19 11:33N 42°55' E 003°59'9 3.8
2014-Dec-19 09:05N 42°53' E 004°12'38 2.4
2014-Dec-18 17:13N 43°24' E 003°42'0 0.6
2014-Dec-18 16:32N 43°24' E 003°42'17 8.0
2014-Dec-18 14:24N 43°08' E 003°50'9 4.5
2014-Dec-18 12:26N 42°60' E 003°55'2 2.3
2014-Dec-18 11:25N 42°58' E 003°57'9 4.1
2014-Dec-18 09:19N 42°59' E 004°09'4 4.3
2014-Dec-18 08:30N 42°59' E 004°14'3 2.6
2014-Dec-18 07:14N 42°59' E 004°09'3 4.5
2014-Dec-18 06:33N 42°59' E 004°05'5 4.4
2014-Dec-18 05:30N 42°60' E 003°59'4 4.2
2014-Dec-18 04:33N 43°02' E 003°54'6 5.6
2014-Dec-18 03:32N 43°07' E 003°50'18 1.8
2014-Dec-17 17:23N 43°24' E 003°42'0 0.3
2014-Dec-17 16:24N 43°24' E 003°42'1311.4
2014-Dec-17 15:16N 43°11' E 003°46'3 4.2
2014-Dec-17 14:29N 43°08' E 003°46'5 4.6
2014-Dec-17 13:24N 43°03' E 003°46'4 4.4
2014-Dec-17 12:27N 42°59' E 003°48'1 1.0
2014-Dec-17 11:20N 42°59' E 003°50'6 4.5
2014-Dec-17 10:06N 42°59' E 003°57'3 4.5
2014-Dec-17 09:32N 42°59' E 004°01'3 3.2
2014-Dec-17 08:32N 42°58' E 004°05'6 5.1
2014-Dec-17 07:19N 42°60' E 003°56'27 1.9
2014-Dec-16 17:30N 43°24' E 003°42'1 0.9
2014-Dec-16 16:30N 43°23' E 003°42'1010.6
2014-Dec-16 15:34N 43°13' E 003°45'6 5.5
2014-Dec-16 14:33N 43°08' E 003°46'4 4.4
2014-Dec-16 13:33N 43°04' E 003°46'4 4.4
2014-Dec-16 12:33N 42°59' E 003°47'4 2.2
2014-Dec-16 10:32N 42°60' E 003°53'5 4.4
2014-Dec-16 09:21N 42°60' E 004°00'3 1.2
2014-Dec-16 07:14N 42°59' E 003°57'27 1.9
2014-Dec-15 17:09N 43°24' E 003°42'0 0.5
2014-Dec-15 16:16N 43°24' E 003°42'6 7.5
2014-Dec-15 15:27N 43°18' E 003°45'8 7.8
2014-Dec-15 14:22N 43°10' E 003°48'8 4.4
2014-Dec-15 12:33N 43°02' E 003°50'3 2.9
2014-Dec-15 11:33N 42°59' E 003°50'6 4.3
2014-Dec-15 10:12N 42°57' E 003°43'4 4.4
2014-Dec-15 09:18N 42°54' E 003°39'4 4.4
2014-Dec-15 08:19N 42°50' E 003°36'  
2014-Dec-12 16:20N 43°24' E 003°44'912.0
2014-Dec-12 15:33N 43°14' E 003°47'11 5.0
2014-Dec-12 13:25N 43°04' E 003°50'4 2.7
2014-Dec-12 12:05N 43°00' E 003°50'3 3.4
2014-Dec-12 11:09N 42°59' E 003°47'9 4.4
2014-Dec-12 09:13N 42°54' E 003°37'5 1.8
2014-Dec-12 06:15N 42°58' E 003°40'25 1.8
2014-Dec-11 16:29N 43°24' E 003°42'6 5.3
2014-Dec-11 15:25N 43°20' E 003°47'9 4.3
2014-Dec-11 13:24N 43°15' E 003°57'7 3.6
2014-Dec-11 11:19N 43°09' E 004°04'3 4.2
2014-Dec-11 10:33N 43°07' E 004°07'4 4.3
2014-Dec-11 09:33N 43°03' E 004°09'4 4.5
2014-Dec-11 08:33N 42°59' E 004°11'2 1.5
2014-Dec-11 07:30N 42°59' E 004°09'4 4.2
2014-Dec-11 06:33N 43°01' E 004°05'5 4.4
2014-Dec-11 05:31N 43°05' E 004°01'4 4.2
2014-Dec-11 04:33N 43°08' E 003°58'4 4.4
2014-Dec-11 03:33N 43°12' E 003°54'15 1.6
2014-Dec-10 18:12N 43°24' E 003°42'0 0.7
2014-Dec-10 17:29N 43°24' E 003°42'0 0.3
2014-Dec-10 16:33N 43°24' E 003°42'4 3.6
2014-Dec-10 15:33N 43°22' E 003°46'5 4.5
2014-Dec-10 14:29N 43°20' E 003°52'4 4.3
2014-Dec-10 13:32N 43°17' E 003°56'5 4.5
2014-Dec-10 12:26N 43°14' E 004°01'1 0.8
2014-Dec-10 11:27N 43°13' E 004°01'4 3.9
2014-Dec-10 10:33N 43°12' E 004°06'4 4.3
2014-Dec-10 09:30N 43°10' E 004°12'5 4.4
2014-Dec-10 08:23N 43°06' E 004°16'11 3.2
2014-Dec-10 05:05N 43°11' E 004°03'20 1.6
2014-Dec-09 16:33N 43°24' E 003°42'0 0.4
2014-Dec-09 15:29N 43°24' E 003°42'  

Dump ship's entire track history